Time;durP1;ratioP1;P1;durP2;ratioP2;P2;SDS_P1;SDS_P2;PMS_P1;PMS_P2;Temp;Humidity;BMP_temperature;BMP_pressure;BME280_temperature;BME280_humidity;BME280_pressure;Samples;Min_cycle;Max_cycle;Signal;HPM_P1;HPM_P2
2021/04/01 00:00:37;;;;;;;15.40;10.70;;;;;;;16.59;43.28;100925.91;4922538;29;20054;-68
2021/04/01 00:03:04;;;;;;;19.35;11.68;;;;;;;16.58;43.29;100918.94;4925175;29;20502;-69
2021/04/01 00:05:31;;;;;;;22.30;11.75;;;;;;;16.33;43.87;100924.09;4922115;29;20044;-69
2021/04/01 00:07:58;;;;;;;13.98;10.95;;;;;;;16.33;44.00;100924.91;4923797;29;20095;-68
2021/04/01 00:10:33;;;;;;;15.45;9.40;;;;;;;16.47;43.36;100914.38;4926297;29;20078;-69
2021/04/01 00:12:59;;;;;;;13.40;9.23;;;;;;;16.54;43.66;100916.59;4924639;29;20160;-69
2021/04/01 00:15:26;;;;;;;14.13;9.57;;;;;;;16.62;43.14;100915.19;4922367;29;20078;-69
2021/04/01 00:17:53;;;;;;;16.55;11.05;;;;;;;16.57;43.45;100911.16;4930255;29;20288;-68
2021/04/01 00:20:20;;;;;;;23.17;10.20;;;;;;;16.50;43.76;100910.69;4923052;29;20047;-68
2021/04/01 00:22:46;;;;;;;13.40;9.20;;;;;;;16.49;43.59;100909.84;4928373;29;20099;-69
2021/04/01 00:25:15;;;;;;;14.20;9.75;;;;;;;16.47;43.72;100914.38;4927572;29;20048;-68
2021/04/01 00:27:42;;;;;;;18.00;9.10;;;;;;;16.43;44.04;100912.88;4925625;29;20044;-68
2021/04/01 00:30:10;;;;;;;13.63;9.20;;;;;;;16.55;43.37;100905.97;4931178;29;20039;-68
2021/04/01 00:32:36;;;;;;;15.57;10.93;;;;;;;16.31;44.27;100899.66;4928612;29;20107;-68
2021/04/01 00:35:04;;;;;;;13.68;9.88;;;;;;;16.29;44.00;100897.09;4928927;29;20570;-68
2021/04/01 00:37:31;;;;;;;15.10;9.10;;;;;;;16.40;43.78;100899.06;4925625;29;20048;-68
2021/04/01 00:39:58;;;;;;;11.57;8.48;;;;;;;16.41;43.89;100900.78;4925237;29;20058;-68
2021/04/01 00:42:25;;;;;;;14.55;9.55;;;;;;;16.50;43.54;100894.91;4928138;29;20036;-68
2021/04/01 00:44:52;;;;;;;12.77;9.85;;;;;;;16.47;43.48;100893.31;4929555;29;20118;-69
2021/04/01 00:47:18;;;;;;;13.00;9.43;;;;;;;16.47;43.69;100892.47;4927170;29;20047;-69
2021/04/01 00:49:45;;;;;;;14.18;9.27;;;;;;;16.47;43.95;100890.69;4926809;29;20051;-69
2021/04/01 00:52:11;;;;;;;14.82;9.93;;;;;;;16.52;43.57;100893.03;4932579;29;20046;-69
2021/04/01 00:54:38;;;;;;;13.63;9.68;;;;;;;16.55;43.54;100886.72;4924593;29;20073;-69
2021/04/01 00:57:05;;;;;;;16.10;9.80;;;;;;;16.43;44.06;100886.56;4924364;29;20051;-69
2021/04/01 00:59:32;;;;;;;12.40;9.25;;;;;;;16.35;44.32;100880.09;4926774;29;20602;-69
2021/04/01 01:02:04;;;;;;;17.75;9.13;;;;;;;16.35;44.45;100887.97;4926258;29;20044;-68
2021/04/01 01:04:32;;;;;;;14.00;9.23;;;;;;;16.33;44.49;100882.00;4926941;29;20079;-68
2021/04/01 01:07:00;;;;;;;12.90;9.75;;;;;;;16.22;44.72;100885.28;4926494;29;20066;-68
2021/04/01 01:09:27;;;;;;;14.27;9.98;;;;;;;16.26;44.74;100881.53;4929680;29;20047;-68
2021/04/01 01:11:53;;;;;;;16.25;10.00;;;;;;;16.17;44.76;100880.31;4927961;29;20040;-68
2021/04/01 01:14:20;;;;;;;14.32;9.20;;;;;;;16.06;45.34;100880.16;4927923;29;20047;-69
2021/04/01 01:16:47;;;;;;;16.30;9.57;;;;;;;16.07;45.05;100887.09;4928350;29;20123;-68
2021/04/01 01:19:16;;;;;;;12.25;9.43;;;;;;;16.03;45.23;100885.59;4924307;29;20525;-69
2021/04/01 01:21:44;;;;;;;12.60;10.68;;;;;;;15.96;45.70;100889.56;4909009;29;20068;-69
2021/04/01 01:24:17;;;;;;;14.60;11.25;;;;;;;15.82;45.58;100892.19;4925641;29;20037;-69
2021/04/01 01:26:46;;;;;;;13.95;10.25;;;;;;;15.91;45.66;100884.59;4921803;29;20101;-68
2021/04/01 01:29:13;;;;;;;16.90;10.00;;;;;;;15.83;46.06;100878.13;4924781;29;20043;-69
2021/04/01 01:31:48;;;;;;;17.92;9.80;;;;;;;15.75;46.43;100885.63;4927264;29;20044;-68
2021/04/01 01:34:20;;;;;;;18.27;10.75;;;;;;;15.96;45.64;100885.16;4929754;29;20095;-69
2021/04/01 01:36:46;;;;;;;16.83;9.88;;;;;;;15.76;46.36;100882.06;4926948;29;20044;-68
2021/04/01 01:39:13;;;;;;;12.48;9.50;;;;;;;15.77;46.01;100878.50;4930758;29;20040;-68
2021/04/01 01:41:40;;;;;;;15.75;10.35;;;;;;;15.75;46.02;100873.31;4927736;29;20052;-69
2021/04/01 01:44:08;;;;;;;13.38;9.45;;;;;;;15.70;46.12;100872.75;4923812;29;20417;-68
2021/04/01 01:46:34;;;;;;;14.50;9.55;;;;;;;15.78;45.86;100870.53;4925425;29;20059;-69
2021/04/01 01:49:02;;;;;;;16.88;9.88;;;;;;;15.46;46.59;100869.81;4927931;29;20165;-69
2021/04/01 01:51:30;;;;;;;10.38;8.93;;;;;;;15.51;47.06;100872.19;4927753;29;20134;-69
2021/04/01 01:53:57;;;;;;;14.13;10.38;;;;;;;15.57;46.43;100869.19;4926766;29;20067;-69
2021/04/01 01:56:26;;;;;;;12.60;10.48;;;;;;;15.59;46.67;100872.53;4925729;29;20557;-69
2021/04/01 01:58:55;;;;;;;11.50;10.02;;;;;;;15.59;46.76;100865.50;4927879;29;20123;-69
2021/04/01 02:01:22;;;;;;;15.20;9.00;;;;;;;15.45;47.04;100858.47;4920934;29;20127;-68
2021/04/01 02:03:50;;;;;;;15.20;9.95;;;;;;;15.44;47.24;100851.50;4910846;29;20048;-68
2021/04/01 02:06:18;;;;;;;12.68;9.40;;;;;;;15.56;46.56;100846.47;4925548;29;20119;-68
2021/04/01 02:08:46;;;;;;;16.42;9.35;;;;;;;15.60;46.53;100848.78;4925695;29;20052;-68
2021/04/01 02:11:15;;;;;;;14.25;9.43;;;;;;;15.63;46.53;100840.75;4913168;29;20036;-69
2021/04/01 02:13:42;;;;;;;20.30;12.05;;;;;;;15.75;45.94;100839.16;4926300;29;20487;-68
2021/04/01 02:16:10;;;;;;;12.43;10.20;;;;;;;15.75;46.12;100833.06;4924783;29;20135;-68
2021/04/01 02:18:38;;;;;;;17.50;12.00;;;;;;;15.69;45.81;100837.75;4925982;29;20558;-69
2021/04/01 02:21:08;;;;;;;19.55;12.40;;;;;;;15.63;45.98;100830.25;4924212;29;20044;-69
2021/04/01 02:23:35;;;;;;;15.27;11.13;;;;;;;15.66;46.05;100835.34;4925683;29;20079;-69
2021/04/01 02:26:03;;;;;;;18.15;11.77;;;;;;;15.82;45.80;100836.97;4925077;29;20075;-69
2021/04/01 02:28:32;;;;;;;12.63;10.10;;;;;;;15.69;46.42;100832.50;4920894;29;20040;-69
2021/04/01 02:31:01;;;;;;;18.25;10.35;;;;;;;15.66;46.52;100834.50;4923206;29;20099;-69
2021/04/01 02:33:33;;;;;;;16.20;9.52;;;;;;;15.63;46.32;100830.25;4923158;29;20044;-69
2021/04/01 02:36:01;;;;;;;16.80;9.80;;;;;;;15.67;46.35;100837.00;4921446;29;20075;-69
2021/04/01 02:38:28;;;;;;;14.55;8.35;;;;;;;15.52;46.72;100834.47;4928298;29;20048;-69
2021/04/01 02:40:56;;;;;;;23.23;10.25;;;;;;;15.57;46.68;100822.72;4927756;29;20470;-69
2021/04/01 02:43:32;;;;;;;16.08;7.78;;;;;;;15.49;47.08;100838.09;4920689;29;20056;-69
2021/04/01 02:46:03;;;;;;;9.80;8.38;;;;;;;15.38;47.19;100836.13;4926002;29;20192;-69
2021/04/01 02:48:30;;;;;;;13.10;8.18;;;;;;;15.44;46.98;100830.50;4921955;29;20060;-69
2021/04/01 02:50:57;;;;;;;14.43;8.13;;;;;;;15.38;47.48;100830.03;4923329;29;20123;-69
2021/04/01 02:53:24;;;;;;;13.10;6.70;;;;;;;15.19;47.64;100833.78;4928387;29;20130;-69
2021/04/01 02:55:54;;;;;;;12.05;8.32;;;;;;;15.27;47.54;100833.31;4925397;29;20048;-69
2021/04/01 02:58:21;;;;;;;10.32;7.75;;;;;;;15.09;48.00;100824.75;4929010;29;20051;-69
2021/04/01 03:00:49;;;;;;;10.23;7.45;;;;;;;15.17;48.06;100827.75;4926794;29;20043;-68
2021/04/01 03:03:21;;;;;;;10.80;7.75;;;;;;;15.09;48.45;100823.91;4913657;29;20067;-69
2021/04/01 03:05:47;;;;;;;8.88;6.82;;;;;;;15.06;48.68;100822.28;4924728;29;20044;-68
2021/04/01 03:08:14;;;;;;;14.82;7.18;;;;;;;15.08;48.57;100825.69;4923981;29;20035;-68
2021/04/01 03:10:40;;;;;;;8.68;6.70;;;;;;;15.21;47.93;100820.53;4923394;29;20135;-68
2021/04/01 03:13:08;;;;;;;10.98;6.63;;;;;;;15.22;48.11;100824.00;4922132;29;20071;-68
2021/04/01 03:15:39;;;;;;;10.65;6.63;;;;;;;15.11;48.01;100824.66;4927191;29;20047;-68
2021/04/01 03:18:08;;;;;;;17.77;7.47;;;;;;;15.12;48.48;100826.34;4906769;29;20087;-68
2021/04/01 03:20:34;;;;;;;13.23;7.78;;;;;;;15.17;47.75;100825.13;4923847;29;20410;-68
2021/04/01 03:23:02;;;;;;;11.60;7.03;;;;;;;15.30;47.34;100822.63;4926341;29;20501;-68
2021/04/01 03:25:29;;;;;;;9.88;6.88;;;;;;;15.50;46.64;100813.53;4926284;29;20505;-68
2021/04/01 03:27:56;;;;;;;12.35;8.63;;;;;;;15.52;46.61;100816.91;4923880;29;20039;-68
2021/04/01 03:30:22;;;;;;;15.07;8.77;;;;;;;15.45;46.53;100816.44;4908995;29;20095;-68
2021/04/01 03:32:49;;;;;;;14.25;8.18;;;;;;;15.37;46.97;100820.47;4924439;29;20043;-68
2021/04/01 03:35:19;;;;;;;14.13;9.63;;;;;;;15.22;47.49;100818.75;4924271;29;20383;-68
2021/04/01 03:37:48;;;;;;;12.00;8.68;;;;;;;15.15;47.99;100818.28;4922976;29;20438;-68
2021/04/01 03:40:14;;;;;;;12.45;7.43;;;;;;;15.13;48.01;100815.75;4921875;29;20139;-68
2021/04/01 03:42:42;;;;;;;11.77;8.52;;;;;;;15.14;47.98;100814.81;4921903;29;20048;-68
2021/04/01 03:45:13;;;;;;;12.68;8.30;;;;;;;15.13;48.35;100814.91;4924069;29;20040;-68
2021/04/01 03:47:40;;;;;;;11.35;7.35;;;;;;;15.03;48.71;100814.63;4922475;29;20480;-68
2021/04/01 03:50:09;;;;;;;13.98;8.00;;;;;;;15.11;48.39;100811.53;4925187;29;20174;-68
2021/04/01 03:52:35;;;;;;;13.80;7.65;;;;;;;15.16;48.30;100812.09;4925832;29;20138;-68
2021/04/01 03:57:42;;;;;;;13.93;7.80;;;;;;;15.29;47.17;100804.34;4927584;29;20111;-68
2021/04/01 04:00:13;;;;;;;25.40;10.30;;;;;;;15.13;47.38;100810.50;4912250;29;20127;-68
2021/04/01 04:08:00;;;;;;;15.55;8.15;;;;;;;15.28;47.43;100800.84;4927058;29;20383;-68
2021/04/01 04:15:52;;;;;;;11.18;8.05;;;;;;;14.95;48.87;100795.84;4925167;29;20054;-67
2021/04/01 04:18:20;;;;;;;14.52;8.77;;;;;;;15.11;47.88;100809.75;4926639;29;20167;-67
2021/04/01 04:20:48;;;;;;;8.38;7.20;;;;;;;15.00;48.91;100798.19;4927169;29;20376;-69
2021/04/01 04:23:17;;;;;;;14.43;7.90;;;;;;;15.08;48.34;100799.44;4927463;29;20447;-68
2021/04/01 04:25:43;;;;;;;13.80;8.85;;;;;;;15.13;47.86;100794.75;4927363;29;20123;-67
2021/04/01 04:28:28;;;;;;;14.35;8.95;;;;;;;15.19;47.33;100793.53;4927413;29;20495;-67
2021/04/01 04:30:54;;;;;;;;;;;;;;;15.17;48.37;100795.41;4929632;29;20048;-67
2021/04/01 04:33:21;;;;;;;10.05;7.18;;;;;;;15.14;47.92;100796.44;4929454;29;19974;-67
2021/04/01 04:35:48;;;;;;;12.98;8.40;;;;;;;15.00;48.69;100798.19;4926414;29;20164;-67
2021/04/01 04:38:14;;;;;;;11.98;7.35;;;;;;;14.92;49.12;100793.41;4924302;29;20040;-67
2021/04/01 04:40:41;;;;;;;10.60;8.02;;;;;;;15.09;48.11;100790.63;4930124;29;20040;-68
2021/04/01 04:43:08;;;;;;;10.88;8.05;;;;;;;15.13;47.99;100794.75;4932539;29;20584;-68
2021/04/01 04:45:34;;;;;;;14.27;8.50;;;;;;;15.12;48.15;100794.81;4937413;29;20047;-67
2021/04/01 04:48:01;;;;;;;17.17;7.88;;;;;;;15.22;47.45;100795.13;4936153;29;20036;-68
2021/04/01 04:50:27;;;;;;;11.13;8.18;;;;;;;15.05;48.20;100799.59;4934272;29;20043;-69
2021/04/01 04:52:54;;;;;;;13.70;8.50;;;;;;;14.89;48.91;100798.84;4937358;29;20040;-68
2021/04/01 04:55:21;;;;;;;14.15;8.15;;;;;;;14.96;48.68;100796.69;4935101;29;20047;-67
2021/04/01 05:05:42;;;;;;;13.32;8.30;;;;;;;14.92;49.04;100798.66;4936570;29;20051;-68
2021/04/01 05:08:09;;;;;;;13.98;8.43;;;;;;;14.95;49.21;100798.47;4920080;29;20040;-69
2021/04/01 05:10:35;;;;;;;12.52;7.93;;;;;;;14.91;49.43;100795.19;4936733;29;20048;-68
2021/04/01 05:13:09;;;;;;;17.48;8.68;;;;;;;14.96;49.04;100802.78;4937176;29;20055;-68
2021/04/01 05:15:45;;;;;;;19.52;7.85;;;;;;;14.93;49.23;100797.72;4937564;29;20490;-72
2021/04/01 05:18:18;;;;;;;16.42;9.02;;;;;;;14.92;49.70;100801.28;4936674;29;20053;-68
2021/04/01 05:20:47;;;;;;;13.85;8.55;;;;;;;14.93;49.69;100792.47;4935626;29;20043;-68
2021/04/01 05:23:25;;;;;;;16.70;8.77;;;;;;;15.07;49.27;100800.34;4936073;29;20076;-68
2021/04/01 05:26:09;;;;;;;15.57;8.88;;;;;;;15.10;49.51;100794.94;4935536;29;20050;-68
2021/04/01 05:28:36;;;;;;;14.00;9.90;;;;;;;15.34;48.15;100787.34;4934151;29;20044;-67
2021/04/01 05:31:07;;;;;;;11.68;8.75;;;;;;;15.19;48.92;100793.53;4935843;29;20508;-68
2021/04/01 05:33:37;;;;;;;19.20;8.77;;;;;;;15.32;48.67;100789.22;4936357;29;20083;-67
2021/04/01 05:36:10;;;;;;;15.63;9.85;;;;;;;15.66;47.71;100789.81;4937223;29;20490;-67
2021/04/01 05:38:38;;;;;;;17.92;10.00;;;;;;;15.68;47.99;100793.19;4936230;29;20087;-69
2021/04/01 05:41:09;;;;;;;15.27;8.82;;;;;;;15.98;47.11;100795.66;4936227;29;20103;-70
2021/04/01 05:43:41;;;;;;;19.20;9.70;;;;;;;16.14;47.31;100793.75;4936343;29;20451;-68
2021/04/01 05:49:15;;;;;;;25.45;10.18;;;;;;;16.52;46.25;100798.28;4936065;29;20047;-71
2021/04/01 05:58:33;;;;;;;23.15;9.18;;;;;;;17.59;45.00;100792.78;4859174;29;20118;-70
2021/04/01 06:01:13;;;;;;;16.88;7.55;;;;;;;18.05;43.87;100790.34;4858674;29;20537;-70
2021/04/01 06:09:02;;;;;;;21.20;11.57;;;;;;;18.63;43.30;100793.13;4931302;29;20097;-72
2021/04/01 06:11:28;;;;;;;24.08;9.23;;;;;;;18.95;42.43;100794.19;4930058;29;20613;-72
2021/04/01 06:16:28;;;;;;;25.63;9.10;;;;;;;19.61;41.47;100786.50;4934520;29;20099;-73
2021/04/01 06:18:55;;;;;;;28.20;10.63;;;;;;;19.89;40.84;100788.59;4933830;29;20862;-72
2021/04/01 06:21:25;;;;;;;28.52;9.77;;;;;;;20.09;40.83;100789.66;4935086;29;20418;-71
2021/04/01 06:24:13;;;;;;;18.35;9.73;;;;;;;20.38;40.62;100786.41;4935527;29;20050;-71
2021/04/01 06:26:48;;;;;;;20.92;10.75;;;;;;;20.65;39.92;100791.25;4935159;29;20108;-80
2021/04/01 06:29:18;;;;;;;25.75;10.38;;;;;;;20.98;39.14;100787.56;4936542;29;20048;-79
2021/04/01 06:31:46;;;;;;;16.02;8.52;;;;;;;21.07;39.13;100783.28;4937271;29;20175;-79
2021/04/01 06:34:13;;;;;;;21.77;11.00;;;;;;;21.32;38.94;100788.19;4937070;29;20103;-82
2021/04/01 06:36:54;;;;;;;29.25;12.38;;;;;;;21.25;39.84;100787.00;4938166;29;20043;-81
2021/04/01 06:39:21;;;;;;;20.63;10.52;;;;;;;21.81;38.89;100791.84;4936022;29;20087;-79
2021/04/01 06:41:51;;;;;;;34.05;11.70;;;;;;;21.38;40.63;100795.63;4936907;29;20039;-79
2021/04/01 06:44:30;;;;;;;14.73;10.13;;;;;;;21.82;40.87;100788.22;4936003;29;20578;-79
2021/04/01 06:47:07;;;;;;;19.30;10.90;;;;;;;22.22;39.87;100792.66;4933315;29;20051;-79
2021/04/01 06:52:21;;;;;;;24.38;12.55;;;;;;;22.69;36.64;100791.00;4928564;29;20406;-79
2021/04/01 06:55:46;;;;;;;12.88;11.27;;;;;;;22.72;35.97;100780.06;4922346;29;20610;-78
2021/04/01 06:58:00;;;;;;;21.65;11.55;;;;;;;23.49;36.16;100772.88;4920927;29;20133;-78
2021/04/01 07:03:21;;;;;;;14.00;10.05;;;;;;;22.42;36.71;100778.41;4928298;29;20044;-79
2021/04/01 07:05:53;;;;;;;16.48;11.15;;;;;;;22.74;35.96;100783.44;4921925;29;20119;-74
2021/04/01 07:08:33;;;;;;;16.08;10.10;;;;;;;23.49;36.18;100768.38;4926911;29;20455;-80
2021/04/01 07:11:03;;;;;;;13.82;9.23;;;;;;;24.14;35.17;100775.44;4920467;29;20102;-80
2021/04/01 07:13:35;;;;;;;17.58;11.43;;;;;;;23.74;34.85;100772.19;4927083;29;20047;-80
2021/04/01 07:36:05;;;;;;;19.58;10.55;;;;;;;26.20;33.52;100764.81;4927280;29;20071;-78
2021/04/01 07:47:42;;;;;;;19.65;11.82;;;;;;;27.62;30.19;100762.41;4862411;29;20057;-78
2021/04/01 07:50:14;;;;;;;15.98;11.15;;;;;;;27.68;28.17;100761.72;4863466;29;20073;-78
2021/04/01 07:52:44;;;;;;;30.90;11.25;;;;;;;27.73;27.97;100765.75;4902347;29;20051;-77
2021/04/01 08:06:15;;;;;;;13.77;9.48;;;;;;;27.23;28.57;100762.41;4934186;29;20134;-78
2021/04/01 08:08:46;;;;;;;19.33;10.45;;;;;;;27.76;27.67;100768.09;4934837;28;20044;-77
2021/04/01 08:11:30;;;;;;;16.45;10.05;;;;;;;27.69;25.78;100768.72;4929580;29;20091;-77
2021/04/01 08:14:06;;;;;;;13.13;9.88;;;;;;;27.98;26.22;100774.47;4934355;29;20051;-79
2021/04/01 08:16:39;;;;;;;18.55;8.80;;;;;;;28.40;25.72;100766.84;4935282;29;20132;-77
2021/04/01 08:19:11;;;;;;;21.63;10.87;;;;;;;28.40;25.87;100768.69;4934767;29;20063;-77
2021/04/01 08:21:53;;;;;;;23.20;11.45;;;;;;;28.65;25.64;100770.09;4914096;29;20440;-77
2021/04/01 08:24:47;;;;;;;17.55;10.25;;;;;;;28.15;26.17;100771.50;4931646;29;20040;-78
2021/04/01 08:33:56;;;;;;;15.73;11.75;;;;;;;29.22;25.31;100768.72;4913094;29;20040;-77
2021/04/01 08:36:47;;;;;;;17.10;11.02;;;;;;;29.78;25.21;100765.53;4937046;29;20036;-76
2021/04/01 08:39:36;;;;;;;15.27;9.77;;;;;;;29.91;24.23;100758.44;4936314;29;20040;-77
2021/04/01 08:43:01;;;;;;;20.63;10.45;;;;;;;29.81;23.55;100759.78;4937475;28;20043;-77
2021/04/01 08:46:07;;;;;;;16.10;10.15;;;;;;;29.67;23.97;100767.69;4937653;29;20509;-75
2021/04/01 08:48:58;;;;;;;20.42;10.30;;;;;;;29.35;24.01;100768.06;4936764;29;20044;-76
2021/04/01 08:51:53;;;;;;;19.00;10.75;;;;;;;28.94;24.86;100764.00;4936849;29;20106;-76
2021/04/01 08:54:44;;;;;;;19.10;11.52;;;;;;;28.94;25.37;100763.19;4936195;29;20138;-77
2021/04/01 08:57:31;;;;;;;15.32;9.77;;;;;;;28.76;24.70;100759.97;4936316;29;20134;-76
2021/04/01 09:00:01;;;;;;;18.17;10.23;;;;;;;28.62;24.72;100758.94;4934893;29;20047;-77
2021/04/01 09:02:28;;;;;;;18.10;11.60;;;;;;;28.58;25.21;100758.44;4935231;29;20075;-77
2021/04/01 09:04:58;;;;;;;28.58;12.93;;;;;;;29.07;25.00;100749.94;4934331;29;20802;-76
2021/04/01 09:07:28;;;;;;;20.58;11.82;;;;;;;28.48;24.94;100751.69;4936309;29;20047;-76
2021/04/01 09:10:21;;;;;;;19.77;11.32;;;;;;;28.08;25.80;100751.81;4936421;29;20036;-75
2021/04/01 09:15:41;;;;;;;;;;;;;;;28.26;25.47;100739.94;4936744;29;20078;-74
2021/04/01 09:18:08;;;;;;;23.15;12.73;;;;;;;28.33;25.55;100735.53;4936445;28;19923;-77
2021/04/01 09:20:34;;;;;;;23.70;12.93;;;;;;;27.71;26.51;100738.31;4935825;29;20043;-76
2021/04/01 09:23:08;;;;;;;26.17;11.90;;;;;;;27.34;26.61;100737.94;4936575;29;20052;-77
2021/04/01 09:25:40;;;;;;;18.75;12.90;;;;;;;27.26;26.18;100734.47;4936015;29;20054;-76
2021/04/01 09:28:08;;;;;;;24.98;12.68;;;;;;;27.60;26.44;100731.47;4923715;29;20110;-74
2021/04/01 09:30:36;;;;;;;25.02;11.75;;;;;;;27.10;26.41;100730.84;4933243;29;20043;-78
2021/04/01 09:33:10;;;;;;;20.23;11.55;;;;;;;27.04;26.78;100726.16;4936377;29;20135;-79
2021/04/01 09:35:37;;;;;;;21.23;11.85;;;;;;;27.28;26.43;100724.44;4936119;29;20035;-79
2021/04/01 09:38:09;;;;;;;28.25;13.50;;;;;;;26.71;27.55;100732.59;4936160;29;20498;-79
2021/04/01 09:40:40;;;;;;;25.02;13.98;;;;;;;25.96;29.23;100730.88;4935627;29;20442;-78
2021/04/01 09:43:16;;;;;;;21.48;13.25;;;;;;;25.89;30.04;100724.53;4934479;29;20048;-79
2021/04/01 09:45:43;;;;;;;18.63;12.63;;;;;;;25.82;30.04;100718.16;4935783;29;20502;-78
2021/04/01 09:48:12;;;;;;;26.85;14.77;;;;;;;25.82;30.15;100720.84;4934547;29;20162;-77
2021/04/01 09:50:43;;;;;;;25.17;12.73;;;;;;;25.37;30.51;100722.03;4936673;29;20107;-78
2021/04/01 09:53:18;;;;;;;34.50;13.57;;;;;;;24.93;30.71;100721.25;4934183;29;20043;-80
2021/04/01 09:55:45;;;;;;;;;;;;;;;25.02;30.90;100718.50;4936312;29;20095;-79
2021/04/01 09:58:20;;;;;;;26.17;13.95;;;;;;;24.90;30.78;100711.75;4935860;29;19927;-79
2021/04/01 10:03:27;;;;;;;26.67;13.30;;;;;;;24.65;30.59;100707.28;4935215;29;20047;-79
2021/04/01 10:05:53;;;;;;;26.02;14.95;;;;;;;24.66;30.79;100708.94;4935440;29;20036;-78
2021/04/01 10:08:32;;;;;;;30.73;15.15;;;;;;;24.69;30.88;100703.31;4935584;29;20358;-78
2021/04/01 10:11:18;;;;;;;28.70;15.30;;;;;;;24.60;30.61;100698.91;4935174;29;20044;-79
2021/04/01 10:13:45;;;;;;;29.45;14.82;;;;;;;24.65;29.85;100697.44;4934156;29;20162;-79
2021/04/01 10:16:23;;;;;;;28.52;15.13;;;;;;;24.49;30.47;100690.16;4916189;29;20055;-77
2021/04/01 10:18:50;;;;;;;27.38;14.80;;;;;;;24.54;30.88;100690.53;4928265;29;20139;-76
2021/04/01 10:21:17;;;;;;;24.27;14.20;;;;;;;24.52;31.25;100686.38;4950918;29;20127;-76
2021/04/01 10:23:47;;;;;;;28.08;16.05;;;;;;;24.56;31.33;100688.56;4935339;29;20127;-76
2021/04/01 10:26:15;;;;;;;31.23;17.92;;;;;;;24.54;31.03;100684.38;4935505;29;20143;-76
2021/04/01 10:29:12;;;;;;;34.90;17.83;;;;;;;24.46;30.42;100681.69;4935300;29;20048;-77
2021/04/01 10:31:49;;;;;;;34.08;18.52;;;;;;;24.51;31.98;100674.06;4930180;29;20067;-75
2021/04/01 10:34:33;;;;;;;35.58;17.70;;;;;;;24.56;32.16;100677.91;4933513;29;20058;-78
2021/04/01 10:37:03;;;;;;;33.83;17.77;;;;;;;24.51;32.37;100674.88;4935716;29;20048;-78
2021/04/01 10:39:34;;;;;;;37.97;20.52;;;;;;;24.55;32.46;100672.72;4934260;29;20095;-76
2021/04/01 10:42:03;;;;;;;33.22;20.85;;;;;;;24.31;33.09;100668.03;4934416;29;20051;-78
2021/04/01 10:44:30;;;;;;;41.90;22.58;;;;;;;24.16;34.16;100670.41;4934118;29;20071;-77
2021/04/01 10:46:59;;;;;;;44.38;20.65;;;;;;;24.36;33.99;100670.28;4935350;29;20450;-79
2021/04/01 10:49:30;;;;;;;34.63;19.85;;;;;;;24.37;34.08;100655.97;4934255;29;20071;-76
2021/04/01 10:52:03;;;;;;;43.30;23.15;;;;;;;24.40;34.02;100655.66;4918355;29;20511;-78
2021/04/01 10:54:37;;;;;;;39.28;22.25;;;;;;;24.34;33.78;100657.06;4929536;29;20498;-77
2021/04/01 10:57:05;;;;;;;42.92;20.73;;;;;;;24.22;33.33;100651.16;4932616;29;20126;-78
2021/04/01 10:59:42;;;;;;;36.85;20.50;;;;;;;24.39;33.50;100645.97;4934831;29;20044;-78
2021/04/01 11:02:33;;;;;;;42.03;22.20;;;;;;;24.47;33.12;100641.53;4932420;29;20065;-78
2021/04/01 11:05:05;;;;;;;32.90;21.52;;;;;;;24.40;32.57;100645.84;4926361;29;20048;-79
2021/04/01 11:07:36;;;;;;;35.03;21.48;;;;;;;24.46;33.65;100637.22;4934488;29;20048;-77
2021/04/01 11:10:03;;;;;;;44.97;23.98;;;;;;;24.51;33.23;100632.25;4931759;29;20095;-77
2021/04/01 11:12:32;;;;;;;39.92;22.70;;;;;;;24.58;33.25;100624.44;4935530;29;20490;-78
2021/04/01 11:15:04;;;;;;;51.22;26.75;;;;;;;24.51;32.92;100624.25;4932947;29;20050;-78
2021/04/01 11:17:34;;;;;;;48.80;24.70;;;;;;;24.50;32.20;100627.06;4935060;29;20051;-76
2021/04/01 11:20:03;;;;;;;45.30;26.50;;;;;;;24.38;32.55;100626.47;4930635;29;20131;-76
2021/04/01 11:22:30;;;;;;;48.67;25.10;;;;;;;24.46;32.52;100615.88;4928571;29;20453;-77
2021/04/01 11:24:56;;;;;;;55.33;29.17;;;;;;;24.30;32.53;100613.94;4933678;29;20155;-78
2021/04/01 11:27:22;;;;;;;41.97;24.05;;;;;;;24.42;32.37;100611.88;4934495;29;20054;-77
2021/04/01 11:29:57;;;;;;;51.53;26.38;;;;;;;24.41;32.23;100614.69;4933915;29;20213;-78
2021/04/01 11:32:25;;;;;;;45.05;25.95;;;;;;;24.25;33.31;100602.06;4934662;29;20046;-76
2021/04/01 11:34:56;;;;;;;38.88;24.00;;;;;;;24.26;32.34;100611.72;4934888;29;20445;-77
2021/04/01 11:37:31;;;;;;;50.17;24.75;;;;;;;24.19;32.52;100598.22;4923393;29;20127;-79
2021/04/01 11:40:03;;;;;;;55.80;27.65;;;;;;;24.16;33.57;100600.34;4919194;29;20044;-78
2021/04/01 11:42:29;;;;;;;48.08;25.60;;;;;;;23.98;34.49;100600.38;4918666;29;20443;-77
2021/04/01 11:44:58;;;;;;;44.22;25.23;;;;;;;24.10;34.08;100596.47;4919904;29;20082;-78
2021/04/01 11:47:24;;;;;;;50.60;25.30;;;;;;;24.23;33.76;100588.06;4923218;29;20052;-78
2021/04/01 11:49:52;;;;;;;44.03;26.08;;;;;;;24.12;33.06;100589.16;4921458;29;20040;-78
2021/04/01 11:52:21;;;;;;;46.20;25.42;;;;;;;24.21;33.22;100582.88;4925053;29;20063;-77
2021/04/01 11:54:53;;;;;;;44.50;24.05;;;;;;;24.03;33.24;100584.78;4929943;29;20036;-78
2021/04/01 11:57:31;;;;;;;47.97;28.63;;;;;;;24.07;33.20;100578.13;4923878;29;20127;-76
2021/04/01 12:00:07;;;;;;;44.00;25.55;;;;;;;24.27;32.81;100581.44;4922711;29;20447;-79
2021/04/01 12:03:17;;;;;;;50.72;29.65;;;;;;;24.11;33.39;100571.50;4930654;29;20048;-76
2021/04/01 12:05:48;;;;;;;47.85;29.02;;;;;;;24.15;33.09;100569.38;4930132;29;20046;-78
2021/04/01 12:08:15;;;;;;;50.65;29.23;;;;;;;24.14;33.66;100565.88;4931800;29;20052;-76
2021/04/01 12:10:56;;;;;;;49.72;27.55;;;;;;;24.24;33.17;100561.28;4931590;29;20062;-78
2021/04/01 12:13:24;;;;;;;41.58;24.27;;;;;;;24.35;33.09;100559.34;4927997;29;20059;-77
2021/04/01 12:15:51;;;;;;;44.60;24.23;;;;;;;24.19;33.56;100552.94;4928289;29;20474;-77
2021/04/01 12:18:19;;;;;;;48.90;27.23;;;;;;;24.03;33.86;100558.16;4930722;29;20165;-77
2021/04/01 12:20:47;;;;;;;50.80;29.17;;;;;;;24.18;33.10;100550.41;4926586;29;20039;-76
2021/04/01 12:23:23;;;;;;;48.22;27.50;;;;;;;24.23;33.20;100542.78;4914447;29;20099;-78
2021/04/01 12:26:02;;;;;;;50.63;26.08;;;;;;;24.33;32.33;100543.50;4934605;29;20050;-77
2021/04/01 12:28:29;;;;;;;56.13;26.88;;;;;;;24.33;32.53;100546.16;4937843;29;20451;-77
2021/04/01 12:30:56;;;;;;;47.83;25.42;;;;;;;24.38;32.31;100535.91;4938121;29;20087;-77
2021/04/01 12:33:25;;;;;;;45.35;27.83;;;;;;;24.27;32.54;100539.63;4935740;29;20051;-74
2021/04/01 12:35:58;;;;;;;54.63;30.08;;;;;;;24.18;32.52;100532.63;4935946;29;20051;-77
2021/04/01 12:38:29;;;;;;;49.92;27.52;;;;;;;24.28;32.08;100532.47;4926338;29;20517;-78
2021/04/01 12:41:25;;;;;;;48.40;29.00;;;;;;;24.33;32.12;100527.50;4929862;29;20099;-78
2021/04/01 12:43:52;;;;;;;46.75;26.35;;;;;;;24.40;32.16;100528.59;4922033;29;20107;-78
2021/04/01 12:46:19;;;;;;;44.83;25.25;;;;;;;24.37;32.10;100522.75;4924140;29;20091;-79
2021/04/01 12:48:55;;;;;;;45.95;24.48;;;;;;;24.42;31.75;100520.44;4936322;29;20111;-77
2021/04/01 12:51:25;;;;;;;43.92;23.85;;;;;;;24.46;31.82;100511.13;4937449;29;20127;-77
2021/04/01 12:54:03;;;;;;;44.60;26.65;;;;;;;24.47;30.99;100513.63;4936825;29;20083;-76
2021/04/01 12:56:34;;;;;;;47.63;25.02;;;;;;;24.49;31.13;100505.47;4932450;29;20126;-76
2021/04/01 12:59:07;;;;;;;41.60;23.65;;;;;;;24.51;30.96;100499.00;4937689;29;20082;-76
2021/04/01 13:01:40;;;;;;;40.05;22.23;;;;;;;24.52;31.17;100492.66;4936878;29;20071;-76
2021/04/01 13:04:12;;;;;;;39.70;23.00;;;;;;;24.46;31.50;100493.31;4937713;29;20046;-76
2021/04/01 13:12:14;;;;;;;41.03;25.80;;;;;;;24.27;32.38;100480.19;4932642;29;20063;-77
2021/04/01 13:14:41;;;;;;;47.88;26.38;;;;;;;24.31;32.91;100481.56;4936809;29;20529;-76